Portada
METAR-TAF:

METAR-TAF

Aeroports :

Juazeiro do Norte, Ceará, Brasil

latitud: 07-13-06S, longitud: 039-16-18W, altitud: 424 m

Observació

L'informe es va fer fa 2 hores i 50 minuts, a les 21:00 UTC
Vent 4 kt del Sud/Sud-Est
Temperatura 30°C
Humitat 27%
Pressió 1014 hPa
Visibilitat 10 km o més
sense núvols per sota de 1500 mi sense presència de cumulonimbus.

METAR: SBJU 122100Z 16004KT CAVOK 30/09 Q1014

Hora: 20:50 (23:50 UTC)


TAF: manca

Observacions i pronòstics meteorològics de més de 4000 aeroports (METAR i TAF).

Les estacions disponibles són els punts grocs i vermells al mapa.

Posi el ratolí al punt desitjat per veure el nom de l'estació.

Feu clic per veure les observacions i els pronòstics meteorològics.

Per canviar el mapa: feu clic els botons verds amb una creu de color negre per apropar; al botó verd amb un guió per allunyar la imatge; o en les fletxes verdes per a mapes adjacents.


METAR-TAF: